F/V Renaissance II — FMEW — position and weather

sailwx.info

Track history (hours):
 
Tides and Currents Weather Stations Pressure Air Temp Water Temp Dewpoint Dewpoint Depression Visibility Wind Speed Wind Dir Waves Ship Positions

F/V Renaissance II

Last reported at 2018-Apr-20 08:31 UTC. Time now 2018-Apr-20 08:58 UTC.
Position N 46°30' W 001°47'.

Length 18 m.

Type: Fishing. MMSI: 228216600.

Date/timePositionNaut miles runAvg speedWind from/ knotsBaromVisibWave heightAir tempDewpointWater temp
2018-Apr-20 08:31N 46°30' W 001°47'0 0.0
2018-Apr-20 07:58N 46°30' W 001°47'0 0.0
2018-Apr-20 07:30N 46°30' W 001°47'0 0.0
2018-Apr-20 07:01N 46°30' W 001°47'0 0.2
2018-Apr-20 06:31N 46°30' W 001°47'0 0.2
2018-Apr-20 06:01N 46°30' W 001°47'0 0.0
2018-Apr-20 05:30N 46°30' W 001°47'0 0.0
2018-Apr-20 05:01N 46°30' W 001°47'0 0.0
2018-Apr-20 04:30N 46°30' W 001°47'0 0.0
2018-Apr-20 04:01N 46°30' W 001°47'0 0.0
2018-Apr-20 03:30N 46°30' W 001°47'0 0.0
2018-Apr-20 03:00N 46°30' W 001°47'0 0.0
2018-Apr-20 02:31N 46°30' W 001°47'0 0.0
2018-Apr-20 02:01N 46°30' W 001°47'0 0.0
2018-Apr-20 01:30N 46°30' W 001°47'0 0.0
2018-Apr-20 01:00N 46°30' W 001°47'0 0.0
2018-Apr-20 00:31N 46°30' W 001°47'0 0.0
2018-Apr-19 23:58N 46°30' W 001°47'0 0.0
2018-Apr-19 23:30N 46°30' W 001°47'0 0.0
2018-Apr-19 23:01N 46°30' W 001°47'0 0.0
2018-Apr-19 22:31N 46°30' W 001°47'0 0.0
2018-Apr-19 22:01N 46°30' W 001°47'0 0.0
2018-Apr-19 21:30N 46°30' W 001°47'0 0.0
2018-Apr-19 21:00N 46°30' W 001°47'0 0.0
2018-Apr-19 20:30N 46°30' W 001°47'0 0.0
2018-Apr-19 20:01N 46°30' W 001°47'0 0.0
2018-Apr-19 19:31N 46°30' W 001°47'0 0.0
2018-Apr-19 19:01N 46°30' W 001°47'0 0.0
2018-Apr-19 18:31N 46°30' W 001°47'0 0.0
2018-Apr-19 18:01N 46°30' W 001°47'0 0.0
2018-Apr-19 17:31N 46°30' W 001°47'0 0.1
2018-Apr-19 17:00N 46°30' W 001°47'0 0.1
2018-Apr-19 16:31N 46°30' W 001°47'0 0.0
2018-Apr-19 16:01N 46°30' W 001°47'0 0.0
2018-Apr-19 15:30N 46°30' W 001°47'0 0.2
2018-Apr-19 15:01N 46°30' W 001°47'0 0.0
2018-Apr-19 14:30N 46°30' W 001°47'1 1.7
2018-Apr-19 14:01N 46°29' W 001°47'4 7.3
2018-Apr-19 13:30N 46°28' W 001°52'4 8.2
2018-Apr-19 13:00N 46°29' W 001°58'4 8.3
2018-Apr-19 12:30N 46°29' W 002°04'4 8.2
2018-Apr-19 12:01N 46°29' W 002°10'5 7.8
2018-Apr-19 11:24N 46°30' W 002°17'4 1.6
2018-Apr-19 09:06N 46°30' W 002°22'110.0
2018-Apr-19 09:00N 46°30' W 002°21'1 1.2
2018-Apr-19 08:16N 46°31' W 002°20'1 1.7
2018-Apr-19 07:52N 46°31' W 002°21'3 8.9
2018-Apr-19 07:31N 46°32' W 002°17'5 9.2
2018-Apr-19 07:00N 46°31' W 002°11'2 4.5
2018-Apr-19 06:31N 46°30' W 002°08'0 0.8
2018-Apr-19 06:00N 46°30' W 002°08'0 0.5
2018-Apr-19 05:31N 46°29' W 002°08'1 1.7
2018-Apr-19 05:01N 46°29' W 002°07'4 7.8
2018-Apr-19 04:30N 46°29' W 002°02'4 8.2
2018-Apr-19 04:01N 46°29' W 001°56'4 8.3
2018-Apr-19 03:31N 46°28' W 001°50'2 4.3
2018-Apr-19 03:01N 46°30' W 001°47'0 0.0
2018-Apr-19 02:30N 46°30' W 001°47'0 0.0
2018-Apr-19 02:00N 46°30' W 001°47'0 0.0
2018-Apr-19 01:30N 46°30' W 001°47'0 0.0
2018-Apr-19 01:00N 46°30' W 001°47'0 0.0
2018-Apr-19 00:29N 46°30' W 001°47'0 0.0
2018-Apr-19 00:01N 46°30' W 001°47'0 0.0
2018-Apr-18 23:30N 46°30' W 001°47'0 0.0
2018-Apr-18 23:01N 46°30' W 001°47'0 0.0
2018-Apr-18 22:30N 46°30' W 001°47'0 0.0
2018-Apr-18 21:59N 46°30' W 001°47'0 0.0
2018-Apr-18 21:31N 46°30' W 001°47'0 0.0
2018-Apr-18 21:01N 46°30' W 001°47'0 0.0
2018-Apr-18 20:30N 46°30' W 001°47'0 0.0
2018-Apr-18 19:59N 46°30' W 001°47'0 0.0
2018-Apr-18 19:31N 46°30' W 001°47'0 0.0
2018-Apr-18 19:00N 46°30' W 001°47'0 0.0
2018-Apr-18 18:27N 46°30' W 001°47'0 0.0
2018-Apr-18 18:00N 46°30' W 001°47'0 0.0
2018-Apr-18 17:31N 46°30' W 001°47'0 0.0
2018-Apr-18 17:01N 46°30' W 001°47'0 0.0
2018-Apr-18 16:31N 46°30' W 001°47'0 0.0
2018-Apr-18 16:00N 46°30' W 001°47'0 0.2
2018-Apr-18 15:30N 46°30' W 001°47'2 3.7
2018-Apr-18 15:01N 46°28' W 001°48'510.2
2018-Apr-18 14:31N 46°24' W 001°53'610.4
2018-Apr-18 13:57N 46°20' W 001°58'2810.2
2018-Apr-18 11:14N 45°60' W 002°26'210.1
2018-Apr-18 11:01N 45°58' W 002°28'6 6.3
2018-Apr-18 10:07N 45°53' W 002°32'10 2.9
2018-Apr-18 06:44N 45°48' W 002°44'5 1.7
2018-Apr-18 04:06N 45°48' W 002°38'0 2.5
2018-Apr-18 04:01N 45°48' W 002°38'1 0.2
2018-Apr-18 01:00N 45°47' W 002°38'1 2.0
2018-Apr-18 00:18N 45°49' W 002°38'22 1.5
2018-Apr-17 09:18N 45°59' W 002°10'7 3.4
2018-Apr-17 07:15N 46°05' W 002°16'2 9.5
2018-Apr-17 07:01N 46°07' W 002°18'3 4.4
2018-Apr-17 06:21N 46°09' W 002°20'0 0.8
2018-Apr-17 05:59N 46°10' W 002°20'1 2.1
2018-Apr-17 05:30N 46°10' W 002°21'3 5.8
2018-Apr-17 05:00N 46°11' W 002°17'4 8.5
2018-Apr-17 04:31N 46°14' W 002°13'4 8.5
2018-Apr-17 04:00N 46°17' W 002°08'4 8.3
2018-Apr-17 03:30N 46°19' W 002°03'4 8.2
2018-Apr-17 03:01N 46°22' W 001°59'4 8.2
2018-Apr-17 02:30N 46°24' W 001°54'4 8.2
2018-Apr-17 02:01N 46°27' W 001°50'3 6.4
2018-Apr-17 01:31N 46°30' W 001°47'0 0.1
2018-Apr-17 00:59N 46°30' W 001°47'0 0.0
2018-Apr-17 00:31N 46°30' W 001°47'0 0.0
2018-Apr-17 00:00N 46°30' W 001°47'0 0.0
2018-Apr-16 23:31N 46°30' W 001°47'0 0.0
2018-Apr-16 23:01N 46°30' W 001°47'0 0.0
2018-Apr-16 22:31N 46°30' W 001°47'0 0.0
2018-Apr-16 22:00N 46°30' W 001°47'0 0.0
2018-Apr-16 21:31N 46°30' W 001°47'0 0.0
2018-Apr-16 21:01N 46°30' W 001°47'0 0.0
2018-Apr-16 20:30N 46°30' W 001°47'0 0.0
2018-Apr-16 20:01N 46°30' W 001°47'0 0.0
2018-Apr-16 19:31N 46°30' W 001°47'0 0.0
2018-Apr-16 19:00N 46°30' W 001°47'0 0.0
2018-Apr-16 18:30N 46°30' W 001°47'0 0.0
2018-Apr-16 18:01N 46°30' W 001°47'0 0.2
2018-Apr-16 17:31N 46°30' W 001°47'2 4.8
2018-Apr-16 17:00N 46°28' W 001°49'5 9.9
2018-Apr-16 16:30N 46°24' W 001°54'510.0
2018-Apr-16 16:00N 46°21' W 001°59'15 0.4
2018-Apr-15 03:44N 46°06' W 001°56'2 9.3
2018-Apr-15 03:29N 46°08' W 001°55'4 9.1
2018-Apr-15 03:00N 46°13' W 001°54'4 9.1
2018-Apr-15 02:30N 46°17' W 001°52'4 9.0
2018-Apr-15 02:00N 46°21' W 001°50'4 8.9
2018-Apr-15 01:31N 46°25' W 001°48'4 8.4
2018-Apr-15 01:00N 46°30' W 001°48'0 0.7
2018-Apr-15 00:30N 46°30' W 001°47'0 0.0
2018-Apr-15 00:00N 46°30' W 001°47'0 0.0
2018-Apr-14 23:30N 46°30' W 001°47'0 0.0
2018-Apr-14 23:00N 46°30' W 001°47'0 0.0
2018-Apr-14 22:30N 46°30' W 001°47'0 0.0
2018-Apr-14 22:00N 46°30' W 001°47'0 0.0
2018-Apr-14 21:30N 46°30' W 001°47'0 0.0
2018-Apr-14 21:00N 46°30' W 001°47'0 0.0
2018-Apr-14 20:30N 46°30' W 001°47'0 0.0
2018-Apr-14 20:00N 46°30' W 001°47'0 0.0
2018-Apr-14 19:30N 46°30' W 001°47'0 0.0
2018-Apr-14 19:00N 46°30' W 001°47'0 0.0
2018-Apr-14 18:30N 46°30' W 001°47'0 0.2
2018-Apr-14 18:00N 46°30' W 001°47'0 0.0
2018-Apr-14 17:30N 46°30' W 001°47'0 0.9
2018-Apr-14 17:00N 46°30' W 001°48'4 8.5
2018-Apr-14 16:30N 46°26' W 001°50'5 9.6
2018-Apr-14 16:00N 46°22' W 001°55'5 9.4
2018-Apr-14 15:30N 46°18' W 001°59'123 3.2
2018-Apr-13 00:32N 47°39' W 004°15'1 9.9
2018-Apr-13 00:23N 47°40' W 004°13'4 9.9
2018-Apr-13 00:00N 47°42' W 004°09'5 9.5
2018-Apr-12 23:28N 47°45' W 004°03'5 9.8
2018-Apr-12 23:00N 47°49' W 003°58'  
Track history (hours):
 
Tides and Currents Weather Stations Pressure Air Temp Water Temp Dewpoint Dewpoint Depression Visibility Wind Speed Wind Dir Waves Ship Positions

F/V Renaissance II

Last reported at 2018-Apr-20 08:31 UTC. Time now 2018-Apr-20 08:58 UTC.
Position N 46°30' W 001°47'.

Length 18 m.

Type: Fishing. MMSI: 228216600.

Date/timePositionNaut miles runAvg speedWind from/ knotsBaromVisibWave heightAir tempDewpointWater temp
2018-Apr-20 08:31N 46°30' W 001°47'0 0.0
2018-Apr-20 07:58N 46°30' W 001°47'0 0.0
2018-Apr-20 07:30N 46°30' W 001°47'0 0.0
2018-Apr-20 07:01N 46°30' W 001°47'0 0.2
2018-Apr-20 06:31N 46°30' W 001°47'0 0.2
2018-Apr-20 06:01N 46°30' W 001°47'0 0.0
2018-Apr-20 05:30N 46°30' W 001°47'0 0.0
2018-Apr-20 05:01N 46°30' W 001°47'0 0.0
2018-Apr-20 04:30N 46°30' W 001°47'0 0.0
2018-Apr-20 04:01N 46°30' W 001°47'0 0.0
2018-Apr-20 03:30N 46°30' W 001°47'0 0.0
2018-Apr-20 03:00N 46°30' W 001°47'0 0.0
2018-Apr-20 02:31N 46°30' W 001°47'0 0.0
2018-Apr-20 02:01N 46°30' W 001°47'0 0.0
2018-Apr-20 01:30N 46°30' W 001°47'0 0.0
2018-Apr-20 01:00N 46°30' W 001°47'0 0.0
2018-Apr-20 00:31N 46°30' W 001°47'0 0.0
2018-Apr-19 23:58N 46°30' W 001°47'0 0.0
2018-Apr-19 23:30N 46°30' W 001°47'0 0.0
2018-Apr-19 23:01N 46°30' W 001°47'0 0.0
2018-Apr-19 22:31N 46°30' W 001°47'0 0.0
2018-Apr-19 22:01N 46°30' W 001°47'0 0.0
2018-Apr-19 21:30N 46°30' W 001°47'0 0.0
2018-Apr-19 21:00N 46°30' W 001°47'0 0.0
2018-Apr-19 20:30N 46°30' W 001°47'0 0.0
2018-Apr-19 20:01N 46°30' W 001°47'0 0.0
2018-Apr-19 19:31N 46°30' W 001°47'0 0.0
2018-Apr-19 19:01N 46°30' W 001°47'0 0.0
2018-Apr-19 18:31N 46°30' W 001°47'0 0.0
2018-Apr-19 18:01N 46°30' W 001°47'0 0.0
2018-Apr-19 17:31N 46°30' W 001°47'0 0.1
2018-Apr-19 17:00N 46°30' W 001°47'0 0.1
2018-Apr-19 16:31N 46°30' W 001°47'0 0.0
2018-Apr-19 16:01N 46°30' W 001°47'0 0.0
2018-Apr-19 15:30N 46°30' W 001°47'0 0.2
2018-Apr-19 15:01N 46°30' W 001°47'0 0.0
2018-Apr-19 14:30N 46°30' W 001°47'1 1.7
2018-Apr-19 14:01N 46°29' W 001°47'4 7.3
2018-Apr-19 13:30N 46°28' W 001°52'4 8.2
2018-Apr-19 13:00N 46°29' W 001°58'4 8.3
2018-Apr-19 12:30N 46°29' W 002°04'4 8.2
2018-Apr-19 12:01N 46°29' W 002°10'5 7.8
2018-Apr-19 11:24N 46°30' W 002°17'4 1.6
2018-Apr-19 09:06N 46°30' W 002°22'110.0
2018-Apr-19 09:00N 46°30' W 002°21'1 1.2
2018-Apr-19 08:16N 46°31' W 002°20'1 1.7
2018-Apr-19 07:52N 46°31' W 002°21'3 8.9
2018-Apr-19 07:31N 46°32' W 002°17'5 9.2
2018-Apr-19 07:00N 46°31' W 002°11'2 4.5
2018-Apr-19 06:31N 46°30' W 002°08'0 0.8
2018-Apr-19 06:00N 46°30' W 002°08'0 0.5
2018-Apr-19 05:31N 46°29' W 002°08'1 1.7
2018-Apr-19 05:01N 46°29' W 002°07'4 7.8
2018-Apr-19 04:30N 46°29' W 002°02'4 8.2
2018-Apr-19 04:01N 46°29' W 001°56'4 8.3
2018-Apr-19 03:31N 46°28' W 001°50'2 4.3
2018-Apr-19 03:01N 46°30' W 001°47'0 0.0
2018-Apr-19 02:30N 46°30' W 001°47'0 0.0
2018-Apr-19 02:00N 46°30' W 001°47'0 0.0
2018-Apr-19 01:30N 46°30' W 001°47'0 0.0
2018-Apr-19 01:00N 46°30' W 001°47'0 0.0
2018-Apr-19 00:29N 46°30' W 001°47'0 0.0
2018-Apr-19 00:01N 46°30' W 001°47'0 0.0
2018-Apr-18 23:30N 46°30' W 001°47'0 0.0
2018-Apr-18 23:01N 46°30' W 001°47'0 0.0
2018-Apr-18 22:30N 46°30' W 001°47'0 0.0
2018-Apr-18 21:59N 46°30' W 001°47'0 0.0
2018-Apr-18 21:31N 46°30' W 001°47'0 0.0
2018-Apr-18 21:01N 46°30' W 001°47'0 0.0
2018-Apr-18 20:30N 46°30' W 001°47'0 0.0
2018-Apr-18 19:59N 46°30' W 001°47'0 0.0
2018-Apr-18 19:31N 46°30' W 001°47'0 0.0
2018-Apr-18 19:00N 46°30' W 001°47'0 0.0
2018-Apr-18 18:27N 46°30' W 001°47'0 0.0
2018-Apr-18 18:00N 46°30' W 001°47'0 0.0
2018-Apr-18 17:31N 46°30' W 001°47'0 0.0
2018-Apr-18 17:01N 46°30' W 001°47'0 0.0
2018-Apr-18 16:31N 46°30' W 001°47'0 0.0
2018-Apr-18 16:00N 46°30' W 001°47'0 0.2
2018-Apr-18 15:30N 46°30' W 001°47'2 3.7
2018-Apr-18 15:01N 46°28' W 001°48'510.2
2018-Apr-18 14:31N 46°24' W 001°53'610.4
2018-Apr-18 13:57N 46°20' W 001°58'2810.2
2018-Apr-18 11:14N 45°60' W 002°26'210.1
2018-Apr-18 11:01N 45°58' W 002°28'6 6.3
2018-Apr-18 10:07N 45°53' W 002°32'10 2.9
2018-Apr-18 06:44N 45°48' W 002°44'5 1.7
2018-Apr-18 04:06N 45°48' W 002°38'0 2.5
2018-Apr-18 04:01N 45°48' W 002°38'1 0.2
2018-Apr-18 01:00N 45°47' W 002°38'1 2.0
2018-Apr-18 00:18N 45°49' W 002°38'22 1.5
2018-Apr-17 09:18N 45°59' W 002°10'7 3.4
2018-Apr-17 07:15N 46°05' W 002°16'2 9.5
2018-Apr-17 07:01N 46°07' W 002°18'3 4.4
2018-Apr-17 06:21N 46°09' W 002°20'0 0.8
2018-Apr-17 05:59N 46°10' W 002°20'1 2.1
2018-Apr-17 05:30N 46°10' W 002°21'3 5.8
2018-Apr-17 05:00N 46°11' W 002°17'4 8.5
2018-Apr-17 04:31N 46°14' W 002°13'4 8.5
2018-Apr-17 04:00N 46°17' W 002°08'4 8.3
2018-Apr-17 03:30N 46°19' W 002°03'4 8.2
2018-Apr-17 03:01N 46°22' W 001°59'4 8.2
2018-Apr-17 02:30N 46°24' W 001°54'4 8.2
2018-Apr-17 02:01N 46°27' W 001°50'3 6.4
2018-Apr-17 01:31N 46°30' W 001°47'0 0.1
2018-Apr-17 00:59N 46°30' W 001°47'0 0.0
2018-Apr-17 00:31N 46°30' W 001°47'0 0.0
2018-Apr-17 00:00N 46°30' W 001°47'0 0.0
2018-Apr-16 23:31N 46°30' W 001°47'0 0.0
2018-Apr-16 23:01N 46°30' W 001°47'0 0.0
2018-Apr-16 22:31N 46°30' W 001°47'0 0.0
2018-Apr-16 22:00N 46°30' W 001°47'0 0.0
2018-Apr-16 21:31N 46°30' W 001°47'0 0.0
2018-Apr-16 21:01N 46°30' W 001°47'0 0.0
2018-Apr-16 20:30N 46°30' W 001°47'0 0.0
2018-Apr-16 20:01N 46°30' W 001°47'0 0.0
2018-Apr-16 19:31N 46°30' W 001°47'0 0.0
2018-Apr-16 19:00N 46°30' W 001°47'0 0.0
2018-Apr-16 18:30N 46°30' W 001°47'0 0.0
2018-Apr-16 18:01N 46°30' W 001°47'0 0.2
2018-Apr-16 17:31N 46°30' W 001°47'2 4.8
2018-Apr-16 17:00N 46°28' W 001°49'5 9.9
2018-Apr-16 16:30N 46°24' W 001°54'510.0
2018-Apr-16 16:00N 46°21' W 001°59'15 0.4
2018-Apr-15 03:44N 46°06' W 001°56'2 9.3
2018-Apr-15 03:29N 46°08' W 001°55'4 9.1
2018-Apr-15 03:00N 46°13' W 001°54'4 9.1
2018-Apr-15 02:30N 46°17' W 001°52'4 9.0
2018-Apr-15 02:00N 46°21' W 001°50'4 8.9
2018-Apr-15 01:31N 46°25' W 001°48'4 8.4
2018-Apr-15 01:00N 46°30' W 001°48'0 0.7
2018-Apr-15 00:30N 46°30' W 001°47'0 0.0
2018-Apr-15 00:00N 46°30' W 001°47'0 0.0
2018-Apr-14 23:30N 46°30' W 001°47'0 0.0
2018-Apr-14 23:00N 46°30' W 001°47'0 0.0
2018-Apr-14 22:30N 46°30' W 001°47'0 0.0
2018-Apr-14 22:00N 46°30' W 001°47'0 0.0
2018-Apr-14 21:30N 46°30' W 001°47'0 0.0
2018-Apr-14 21:00N 46°30' W 001°47'0 0.0
2018-Apr-14 20:30N 46°30' W 001°47'0 0.0
2018-Apr-14 20:00N 46°30' W 001°47'0 0.0
2018-Apr-14 19:30N 46°30' W 001°47'0 0.0
2018-Apr-14 19:00N 46°30' W 001°47'0 0.0
2018-Apr-14 18:30N 46°30' W 001°47'0 0.2
2018-Apr-14 18:00N 46°30' W 001°47'0 0.0
2018-Apr-14 17:30N 46°30' W 001°47'0 0.9
2018-Apr-14 17:00N 46°30' W 001°48'4 8.5
2018-Apr-14 16:30N 46°26' W 001°50'5 9.6
2018-Apr-14 16:00N 46°22' W 001°55'5 9.4
2018-Apr-14 15:30N 46°18' W 001°59'123 3.2
2018-Apr-13 00:32N 47°39' W 004°15'1 9.9
2018-Apr-13 00:23N 47°40' W 004°13'4 9.9
2018-Apr-13 00:00N 47°42' W 004°09'5 9.5
2018-Apr-12 23:28N 47°45' W 004°03'5 9.8
2018-Apr-12 23:00N 47°49' W 003°58'  

Dump ship's entire track history